createdAt,value
2019-06-01T03:08:18.889Z,9.20
2019-06-01T03:10:50.191Z,9.03
2019-06-01T03:13:22.663Z,10.32
2019-06-01T03:15:54.246Z,10.35
2019-06-01T03:18:25.642Z,13.20
2019-06-01T03:20:57.844Z,10.85
2019-06-01T03:23:29.558Z,10.98
2019-06-01T03:26:02.141Z,10.53
2019-06-01T03:28:35.188Z,10.28
2019-06-01T03:31:06.375Z,8.53
2019-06-01T03:33:36.868Z,8.45
2019-06-01T03:36:06.940Z,11.38
2019-06-01T03:38:36.958Z,9.15
2019-06-01T03:41:08.157Z,11.05
2019-06-01T03:43:38.228Z,11.97
2019-06-01T03:46:08.737Z,15.48
2019-06-01T03:48:38.789Z,10.75
2019-06-01T03:51:09.814Z,11.20
2019-06-01T03:53:39.869Z,9.75
2019-06-01T03:56:11.037Z,12.18
2019-06-01T03:58:41.012Z,13.48
2019-06-01T04:01:11.250Z,11.03
2019-06-01T04:03:41.183Z,14.63
2019-06-01T04:06:11.434Z,11.38
2019-06-01T04:08:41.432Z,10.58
2019-06-01T04:11:11.756Z,12.65
2019-06-01T04:13:41.679Z,9.70
2019-06-01T04:16:12.040Z,8.88
2019-06-01T04:18:42.009Z,9.55
2019-06-01T04:21:12.205Z,8.73
2019-06-01T04:23:42.154Z,10.38
2019-06-01T04:26:12.318Z,9.28
2019-06-01T04:28:42.232Z,11.57
2019-06-01T04:31:12.863Z,13.45
2019-06-01T04:33:42.851Z,16.23
2019-06-01T04:36:13.083Z,17.35
2019-06-01T04:38:43.112Z,25.50
2019-06-01T04:41:14.103Z,27.48
2019-06-01T04:43:44.290Z,24.52
2019-06-01T04:46:14.476Z,20.90
2019-06-01T04:48:44.461Z,23.52
2019-06-01T04:51:14.977Z,22.22
2019-06-01T04:53:44.979Z,20.75
2019-06-01T04:56:15.263Z,23.40
2019-06-01T04:58:46.308Z,21.68
2019-06-01T05:01:16.284Z,21.90
2019-06-01T05:03:46.258Z,25.15
2019-06-01T05:06:16.245Z,22.90
2019-06-01T05:08:47.209Z,29.57
2019-06-01T05:11:17.191Z,30.75
2019-06-01T05:13:47.192Z,30.08
2019-06-01T05:16:17.156Z,27.87
2019-06-01T05:18:47.169Z,30.10
2019-06-01T05:21:17.214Z,27.87
2019-06-01T05:23:47.224Z,33.80
2019-06-01T05:26:17.224Z,31.62
2019-06-01T05:28:47.196Z,30.70
2019-06-01T05:31:24.277Z,28.75
2019-06-01T05:33:49.466Z,29.85
2019-06-01T05:36:20.300Z,28.80
2019-06-01T05:38:50.508Z,32.90
2019-06-01T05:41:20.564Z,33.95
2019-06-01T05:43:50.650Z,31.40
2019-06-01T05:46:20.642Z,31.02
2019-06-01T05:48:50.609Z,27.48
2019-06-01T05:51:20.705Z,30.02
2019-06-01T05:53:50.686Z,25.40
2019-06-01T05:56:20.739Z,30.55
2019-06-01T05:58:50.712Z,25.32
2019-06-01T06:01:20.746Z,27.85
2019-06-01T06:03:50.701Z,28.05
2019-06-01T06:06:21.975Z,23.25
2019-06-01T06:08:52.114Z,22.35
2019-06-01T06:11:22.118Z,21.93
2019-06-01T06:13:52.077Z,23.00
2019-06-01T06:16:22.566Z,21.25
2019-06-01T06:18:52.548Z,19.90
2019-06-01T06:21:22.549Z,21.33
2019-06-01T06:23:52.502Z,18.67
2019-06-01T06:26:22.859Z,18.25
2019-06-01T06:28:52.892Z,16.75
2019-06-01T06:31:23.261Z,18.35
2019-06-01T06:33:56.444Z,17.27
2019-06-01T06:36:24.878Z,15.10
2019-06-01T06:38:54.832Z,15.90
2019-06-01T06:41:24.905Z,20.95
2019-06-01T06:43:55.824Z,15.35
2019-06-01T06:46:25.790Z,15.88
2019-06-01T06:48:55.779Z,18.40
2019-06-01T06:51:25.763Z,22.13
2019-06-01T06:53:55.724Z,16.02
2019-06-01T06:56:26.193Z,16.57
2019-06-01T06:58:56.183Z,12.85
2019-06-01T07:01:26.965Z,11.97
2019-06-01T07:04:11.783Z,13.35
2019-06-01T07:06:29.712Z,11.43
2019-06-01T07:08:59.669Z,12.55
2019-06-01T07:11:29.656Z,11.85
2019-06-01T07:13:59.677Z,12.55
2019-06-01T07:16:29.619Z,14.18
2019-06-01T07:18:59.637Z,13.20
2019-06-01T07:21:29.586Z,12.78
2019-06-01T07:23:59.645Z,10.90
2019-06-01T07:26:29.619Z,10.00
2019-06-01T07:28:59.609Z,13.00
2019-06-01T07:31:29.563Z,12.90
2019-06-01T07:33:59.579Z,12.93
2019-06-01T07:36:29.548Z,7.17
2019-06-01T07:38:59.621Z,9.18
2019-06-01T07:41:29.580Z,8.38
2019-06-01T07:43:59.585Z,7.17
2019-06-01T07:46:29.533Z,8.95
2019-06-01T07:48:59.517Z,5.70
2019-06-01T07:51:29.802Z,6.33
2019-06-01T07:53:59.831Z,8.78
2019-06-01T07:56:29.778Z,8.93
2019-06-01T07:58:59.846Z,9.83
2019-06-01T08:01:31.541Z,5.95
2019-06-01T08:04:01.472Z,8.23
2019-06-01T08:06:32.700Z,9.20
2019-06-01T08:09:05.512Z,7.60
2019-06-01T08:11:35.463Z,10.68
2019-06-01T08:14:05.657Z,6.00
2019-06-01T08:16:35.603Z,7.03
2019-06-01T08:19:05.632Z,6.45
2019-06-01T08:21:35.686Z,5.53
2019-06-01T08:24:05.713Z,7.45
2019-06-01T08:26:35.744Z,6.50
2019-06-01T08:29:05.936Z,8.55
2019-06-01T08:31:35.887Z,8.78
2019-06-01T08:34:06.131Z,9.73
2019-06-01T08:36:36.222Z,7.50
2019-06-01T08:39:09.291Z,8.20
2019-06-01T08:41:39.245Z,8.08
2019-06-01T08:44:09.369Z,8.53
2019-06-01T08:46:39.715Z,9.53
2019-06-01T08:49:09.823Z,4.95
2019-06-01T08:51:39.831Z,7.05
2019-06-01T08:54:09.797Z,6.70
2019-06-01T08:56:39.797Z,10.35
2019-06-01T08:59:09.815Z,5.22
2019-06-01T09:01:39.777Z,7.53
2019-06-01T09:04:10.721Z,4.67
2019-06-01T09:06:40.861Z,6.20
2019-06-01T09:09:11.905Z,7.30
2019-06-01T09:11:42.180Z,5.67
2019-06-01T09:14:12.398Z,5.08
2019-06-01T09:16:42.757Z,4.90
2019-06-01T09:19:12.752Z,7.17
2019-06-01T09:21:42.809Z,5.92
2019-06-01T09:24:13.796Z,5.75
2019-06-01T09:26:43.725Z,5.03
2019-06-01T09:29:13.728Z,4.83
2019-06-01T09:31:43.717Z,6.70
2019-06-01T09:34:13.710Z,6.15
2019-06-01T09:36:43.665Z,8.18
2019-06-01T09:39:13.636Z,5.60
2019-06-01T09:41:43.654Z,8.93
2019-06-01T09:44:13.754Z,9.28
2019-06-01T09:46:43.710Z,6.65
2019-06-01T09:49:13.681Z,9.25
2019-06-01T09:51:43.636Z,7.72
2019-06-01T09:54:13.608Z,6.58
2019-06-01T09:56:43.567Z,5.67
2019-06-01T09:59:13.546Z,8.65
2019-06-01T10:01:43.506Z,6.25
2019-06-01T10:04:13.508Z,8.65
2019-06-01T10:06:43.465Z,7.60
2019-06-01T10:09:14.484Z,8.13
2019-06-01T10:11:44.499Z,5.50
2019-06-01T10:14:14.472Z,9.20
2019-06-01T10:16:44.457Z,5.45
2019-06-01T10:19:14.416Z,6.20
2019-06-01T10:21:44.392Z,7.12
2019-06-01T10:24:14.378Z,8.08
2019-06-01T10:26:44.372Z,7.55
2019-06-01T10:29:14.328Z,8.75
2019-06-01T10:31:44.326Z,8.13
2019-06-01T10:34:14.279Z,8.38
2019-06-01T10:36:44.251Z,5.55
2019-06-01T10:39:14.263Z,5.35
2019-06-01T10:41:44.244Z,8.90
2019-06-01T10:44:14.223Z,7.05
2019-06-01T10:46:44.234Z,10.03
2019-06-01T10:49:14.195Z,9.78
2019-06-01T10:51:44.162Z,6.17
2019-06-01T10:54:14.107Z,7.42
2019-06-01T10:56:44.115Z,6.20
2019-06-01T10:59:14.070Z,5.97
2019-06-01T11:01:44.040Z,6.70
2019-06-01T11:04:13.994Z,6.92
2019-06-01T11:06:48.401Z,6.03
2019-06-01T11:09:15.560Z,8.05
2019-06-01T11:11:45.535Z,5.83
2019-06-01T11:14:15.497Z,4.28
2019-06-01T11:16:45.746Z,5.10
2019-06-01T11:19:15.678Z,6.03
2019-06-01T11:21:45.638Z,6.95
2019-06-01T11:24:15.597Z,5.40
2019-06-01T11:26:45.609Z,6.03
2019-06-01T11:29:15.563Z,7.65
2019-06-01T11:31:45.547Z,6.62
2019-06-01T11:34:15.514Z,7.12
2019-06-01T11:37:03.693Z,4.90
2019-06-01T11:39:17.087Z,4.00
2019-06-01T11:41:47.072Z,5.50
2019-06-01T11:44:17.044Z,4.70
2019-06-01T11:46:47.000Z,7.67
2019-06-01T11:49:20.565Z,7.10
2019-06-01T11:51:48.557Z,8.70
2019-06-01T11:54:18.507Z,9.85
2019-06-01T11:56:48.536Z,8.45
2019-06-01T11:59:21.247Z,5.70
2019-06-01T12:01:50.077Z,5.37
2019-06-01T12:04:20.023Z,10.78
2019-06-01T12:06:50.059Z,12.13
2019-06-01T12:09:20.008Z,5.78
2019-06-01T12:11:49.979Z,7.00
2019-06-01T12:14:19.931Z,5.47
2019-06-01T12:16:49.902Z,6.50
2019-06-01T12:19:20.408Z,8.33
2019-06-01T12:21:50.394Z,4.78
2019-06-01T12:24:25.507Z,11.15
2019-06-01T12:26:51.945Z,6.15
2019-06-01T12:29:21.888Z,6.97
2019-06-01T12:31:51.980Z,4.20
2019-06-01T12:34:21.966Z,6.45
2019-06-01T12:36:51.936Z,6.00
2019-06-01T12:39:21.884Z,4.25
2019-06-01T12:41:51.946Z,4.85
2019-06-01T12:44:21.884Z,5.15
2019-06-01T12:50:27.215Z,4.17
2019-06-01T12:52:57.221Z,5.15
2019-06-01T12:55:27.201Z,6.20
2019-06-01T12:57:57.193Z,4.50
2019-06-01T13:00:27.259Z,3.62
2019-06-01T13:03:06.892Z,4.47
2019-06-01T13:05:28.803Z,4.95
2019-06-01T13:08:02.690Z,3.50
2019-06-01T13:10:30.404Z,3.95
2019-06-01T13:13:00.527Z,4.47
2019-06-01T13:15:30.492Z,3.98
2019-06-01T13:18:00.478Z,5.35
2019-06-01T13:20:30.501Z,6.00
2019-06-01T13:23:00.472Z,6.10
2019-06-01T13:25:30.417Z,3.83
2019-06-01T13:28:00.418Z,4.17
2019-06-01T13:30:30.382Z,3.60
2019-06-01T13:33:00.364Z,4.65
2019-06-01T13:35:30.337Z,7.90
2019-06-01T13:38:11.722Z,6.83
2019-06-01T13:40:32.866Z,8.60
2019-06-01T13:43:02.816Z,5.30
2019-06-01T13:45:32.797Z,3.62
2019-06-01T13:48:02.789Z,4.75
2019-06-01T13:50:32.719Z,5.05
2019-06-01T13:53:02.693Z,4.97
2019-06-01T13:55:33.713Z,4.50
2019-06-01T13:58:03.681Z,3.15
2019-06-01T14:00:33.635Z,5.17
2019-06-01T14:03:03.642Z,4.97
2019-06-01T14:05:33.590Z,5.78
2019-06-01T14:08:03.586Z,6.55
2019-06-01T14:10:33.525Z,4.50
2019-06-01T14:13:05.340Z,6.00
2019-06-01T14:15:35.097Z,6.10
2019-06-01T14:18:05.426Z,3.45
2019-06-01T14:20:35.388Z,5.58
2019-06-01T14:23:05.358Z,4.60
2019-06-01T14:25:35.345Z,5.40
2019-06-01T14:28:05.464Z,5.12
2019-06-01T14:30:36.401Z,4.85
2019-06-01T14:33:06.346Z,4.30
2019-06-01T14:35:36.346Z,3.45
2019-06-01T14:38:06.327Z,4.05
2019-06-01T14:40:36.268Z,8.58
2019-06-01T14:43:06.256Z,5.75
2019-06-01T14:45:36.214Z,5.22
2019-06-01T14:48:06.250Z,3.83
2019-06-01T14:50:36.213Z,4.97
2019-06-01T14:53:06.187Z,2.90
2019-06-01T14:55:36.141Z,5.58
2019-06-01T14:58:06.132Z,4.22
2019-06-01T15:00:36.090Z,4.15
2019-06-01T15:03:06.152Z,5.03
2019-06-01T15:05:38.522Z,4.12
2019-06-01T15:08:08.527Z,4.75
2019-06-01T15:10:38.513Z,3.95
2019-06-01T15:13:08.459Z,4.75
2019-06-01T15:15:38.523Z,3.72
2019-06-01T15:18:09.253Z,2.80
2019-06-01T15:20:39.264Z,2.60
2019-06-01T15:23:09.238Z,3.25
2019-06-01T15:25:39.241Z,2.77
2019-06-01T15:28:09.301Z,3.58
2019-06-01T15:30:39.548Z,4.87
2019-06-01T15:33:09.492Z,2.83
2019-06-01T15:35:39.465Z,4.75
2019-06-01T15:38:09.431Z,3.72
2019-06-01T15:40:39.426Z,4.47
2019-06-01T15:43:09.367Z,3.50
2019-06-01T15:45:41.348Z,3.98
2019-06-01T15:48:10.961Z,4.58
2019-06-01T15:50:41.046Z,2.75
2019-06-01T15:53:10.992Z,4.95
2019-06-01T15:55:41.015Z,3.55
2019-06-01T15:58:10.955Z,3.12
2019-06-01T16:00:40.995Z,3.10
2019-06-01T16:03:10.959Z,4.15
2019-06-01T16:05:40.935Z,3.77
2019-06-01T16:08:10.965Z,3.45
2019-06-01T16:10:41.056Z,2.47
2019-06-01T16:13:11.004Z,4.40
2019-06-01T16:15:40.971Z,3.08
2019-06-01T16:18:10.946Z,3.37
2019-06-01T16:20:40.933Z,5.42
2019-06-01T16:23:10.984Z,4.20
2019-06-01T16:25:41.378Z,3.70
2019-06-01T16:28:11.406Z,3.20
2019-06-01T16:30:41.454Z,3.58
2019-06-01T16:33:11.399Z,4.15
2019-06-01T16:35:41.368Z,3.17
2019-06-01T16:38:11.374Z,3.87
2019-06-01T16:40:41.502Z,4.85
2019-06-01T16:43:11.648Z,6.40
2019-06-01T16:45:41.617Z,6.50
2019-06-01T16:48:11.654Z,7.90
2019-06-01T16:50:41.646Z,10.00
2019-06-01T16:53:12.661Z,7.78
2019-06-01T16:55:42.661Z,6.97
2019-06-01T16:58:12.616Z,8.08
2019-06-01T17:00:42.596Z,5.25
2019-06-01T17:03:12.620Z,7.97
2019-06-01T17:05:42.600Z,6.15
2019-06-01T17:08:13.521Z,5.55
2019-06-01T17:10:43.571Z,7.15
2019-06-01T17:13:13.513Z,4.15
2019-06-01T17:15:43.488Z,5.53
2019-06-01T17:18:13.509Z,12.98
2019-06-01T17:20:51.882Z,8.40
2019-06-01T17:23:26.925Z,9.78
2019-06-01T17:25:53.544Z,6.85
2019-06-01T17:28:23.586Z,5.72
2019-06-01T17:30:53.578Z,5.47
2019-06-01T17:33:23.577Z,5.10
2019-06-01T17:35:53.523Z,4.28
2019-06-01T17:38:23.549Z,15.58
2019-06-01T17:40:53.545Z,12.55
2019-06-01T17:43:23.667Z,12.60
2019-06-01T17:45:53.641Z,13.55
2019-06-01T17:48:26.918Z,13.20
2019-06-01T17:50:55.181Z,9.68
2019-06-01T17:53:25.319Z,9.43
2019-06-01T17:55:55.378Z,6.30
2019-06-01T17:58:25.334Z,8.35
2019-06-01T18:00:55.292Z,8.48
2019-06-01T18:03:25.328Z,8.55
2019-06-01T18:05:56.888Z,6.90
2019-06-01T18:08:26.937Z,8.38
2019-06-01T18:10:56.922Z,6.97
2019-06-01T18:13:26.920Z,8.13
2019-06-01T18:15:56.884Z,18.30
2019-06-01T18:18:26.936Z,15.45
2019-06-01T18:20:56.961Z,21.62
2019-06-01T18:23:26.978Z,14.85
2019-06-01T18:25:56.928Z,19.25
2019-06-01T18:28:26.981Z,18.62
2019-06-01T18:30:57.929Z,17.35
2019-06-01T18:33:27.934Z,17.55
2019-06-01T18:35:57.899Z,16.10
2019-06-01T18:38:28.032Z,13.85
2019-06-01T18:41:09.320Z,14.00
2019-06-01T18:43:30.313Z,13.13
2019-06-01T18:47:09.846Z,13.65
2019-06-01T18:49:40.853Z,12.80
2019-06-01T18:52:12.771Z,13.68
2019-06-01T18:54:43.288Z,30.57
2019-06-01T18:57:20.532Z,49.35
2019-06-01T18:59:46.537Z,54.05
2019-06-01T19:02:16.818Z,50.35
2019-06-01T19:04:48.778Z,70.10
2019-06-01T19:07:19.447Z,32.45
2019-06-01T19:09:49.834Z,33.08
2019-06-01T19:12:20.400Z,16.62
2019-06-01T19:14:52.223Z,34.50
2019-06-01T19:17:22.955Z,18.90
2019-06-01T19:19:53.693Z,13.08
2019-06-01T19:22:24.115Z,9.05
2019-06-01T19:24:54.644Z,9.85
2019-06-01T19:27:25.374Z,10.00
2019-06-01T19:29:57.234Z,11.18
2019-06-01T19:32:28.010Z,8.58
2019-06-01T19:34:58.803Z,20.82
2019-06-01T19:37:29.731Z,11.25
2019-06-01T19:40:00.556Z,9.10
2019-06-01T19:42:31.616Z,9.13
2019-06-01T19:45:05.333Z,9.25
2019-06-01T19:47:35.998Z,10.80
2019-06-01T19:50:08.479Z,8.15
2019-06-01T19:52:40.386Z,8.08
2019-06-01T19:55:12.813Z,11.68
2019-06-01T19:57:43.607Z,9.50
2019-06-01T20:00:18.424Z,14.63
2019-06-01T20:02:49.407Z,15.43
2019-06-01T20:05:20.192Z,10.58
2019-06-01T20:07:50.932Z,7.45
2019-06-01T20:10:22.575Z,6.83
2019-06-01T20:15:36.000Z,12.95
2019-06-01T20:18:07.870Z,8.45
2019-06-01T20:20:40.078Z,6.95
2019-06-01T20:23:13.151Z,7.35
2019-06-01T20:25:44.052Z,10.32
2019-06-01T20:28:16.013Z,7.10
2019-06-01T20:30:47.877Z,7.53
2019-06-01T20:33:20.568Z,8.98
2019-06-01T20:35:51.491Z,8.95
2019-06-01T20:38:24.375Z,7.97
2019-06-01T20:40:55.208Z,10.13
2019-06-01T20:43:29.012Z,9.60
2019-06-01T20:46:00.052Z,10.35
2019-06-01T20:48:30.684Z,12.73
2019-06-01T20:51:02.479Z,10.08
2019-06-01T20:53:33.237Z,9.45
2019-06-01T20:56:03.908Z,14.13
2019-06-01T20:58:35.559Z,12.28
2019-06-01T21:01:06.191Z,12.33
2019-06-01T21:03:38.151Z,11.50
2019-06-01T21:06:08.884Z,17.07
2019-06-01T21:08:41.358Z,12.18
2019-06-01T21:11:12.095Z,13.38
2019-06-01T21:13:43.656Z,14.43
2019-06-01T21:16:14.274Z,11.68
2019-06-01T21:18:46.979Z,16.20
2019-06-01T21:21:18.340Z,11.20
2019-06-01T21:23:48.852Z,13.18
2019-06-01T21:26:21.108Z,13.05
2019-06-01T21:28:51.865Z,11.63
